Flight Track Log - Related Links

Times and Time Zones

All times are in EDT time to prevent confusion due to time zone crossing. See the N454QS flight status page for this flight to view local times or setup timezone preferences in your user account.

Time Position Orientation Groundspeed Altitude Reporting Facility
EDT Latitude Longitude Course Direction KTS MPH feet Rate Location/Type
Sun 08:12:40 PM 40.8167 -72.6500 56° Northeast 205 236 1,500  Level New York TRACON
Sun 08:13:40 PM 40.8000 -72.5833 108° East 235 270 2,000 1,433 Climbing New York TRACON
Sun 08:15:00 PM 40.9269 -72.4188 333° Northwest  Level Estimated
Sun 08:15:40 PM 40.9000 -72.5167 333° Northwest 259 298 5,800  Level New York TRACON
Sun 08:16:40 PM 40.9500 -72.5833 315° West 265 305 8,300 2,100 Climbing New York TRACON
Sun 08:17:40 PM 41.0000 -72.6667 309° West 274 315 10,000 850 Climbing New York TRACON
Sun 08:18:00 PM 41.4327 -72.9846 56° Northeast  Level FlightAware Approximate
Sun 08:18:40 PM 41.0500 -72.7667 304° West 321 369 10,000  Level New York TRACON
Sun 08:19:40 PM 41.1000 -72.8500 309° West 329 379 10,000  Level New York TRACON
Sun 08:21:16 PM 41.1797 -73.0108 303° West 339 390 10,000 538 Level Boston Center
Sun 08:22:16 PM 41.2608 -73.0642 334° Northwest 314 361 11,400 1,800 Climbing Boston Center
Sun 08:23:16 PM 41.3503 -73.1008 343° North 329 379 13,600 1,850 Climbing Boston Center
Sun 08:24:16 PM 41.4275 -73.0408 30° Northeast 329 379 15,100 1,800 Climbing Boston Center
Sun 08:25:16 PM 41.4867 -72.9056 60° Northeast 343 395 17,200 1,600 Climbing Boston Center
Sun 08:26:16 PM 41.5350 -72.7950 60° Northeast 373 429 18,300 1,250 Climbing Boston Center
Sun 08:27:16 PM 41.5958 -72.6567 60° Northeast 382 440 19,700 1,400 Climbing Boston Center
Sun 08:28:16 PM 41.6522 -72.5233 60° Northeast 394 453 21,100 1,350 Climbing Boston Center
Sun 08:29:16 PM 41.7106 -72.3928 59° Northeast 399 459 22,400 1,250 Climbing Boston Center
Sun 08:30:16 PM 41.7833 -72.2703 51° Northeast 404 465 23,600 1,150 Climbing Boston Center
Sun 08:31:16 PM 41.8750 -72.1642 41° Northeast 411 473 24,700 950 Climbing Boston Center
Sun 08:32:16 PM 41.9642 -72.0575 42° Northeast 411 473 25,500 850 Climbing Boston Center
Sun 08:33:16 PM 42.0575 -71.9481 41° Northeast 429 494 26,400 900 Climbing Boston Center
Sun 08:34:16 PM 42.1528 -71.8353 41° Northeast 439 505 27,300 850 Climbing Boston Center
Sun 08:35:16 PM 42.2503 -71.7219 41° Northeast 451 519 28,100 900 Climbing Boston Center
Sun 08:36:16 PM 42.3472 -71.6031 42° Northeast 456 525 29,100 1,300 Climbing Boston Center
Sun 08:37:16 PM 42.4361 -71.5061 39° Northeast 467 537 30,700 1,300 Climbing Boston Center
Sun 08:38:16 PM 42.5289 -71.3919 42° Northeast 457 526 31,700 1,200 Climbing Boston Center
Sun 08:39:16 PM 42.6194 -71.2806 42° Northeast 446 513 33,100 1,350 Climbing Boston Center
Sun 08:40:16 PM 42.7100 -71.1714 42° Northeast 440 506 34,400 1,350 Climbing Boston Center
Sun 08:41:16 PM 42.7986 -71.0650 41° Northeast 435 501 35,800 1,250 Climbing Boston Center
Sun 08:42:16 PM 42.8847 -70.9581 42° Northeast 430 495 36,900 1,000 Climbing Boston Center
Sun 08:43:16 PM 42.9769 -70.8425 42° Northeast 418 481 37,800 850 Climbing Boston Center
Sun 08:44:16 PM 43.0631 -70.7378 42° Northeast 413 475 38,600 850 Climbing Boston Center
Sun 08:45:16 PM 43.1489 -70.6272 43° Northeast 408 470 39,500 850 Climbing Boston Center
Sun 08:46:16 PM 43.2325 -70.5222 42° Northeast 408 470 40,300 700 Climbing Boston Center
Sun 08:47:16 PM 43.3181 -70.4139 43° Northeast 408 470 40,900 300 Climbing Boston Center
Sun 08:48:16 PM 43.4017 -70.3053 43° Northeast 408 470 40,900  Level Boston Center
Sun 08:49:16 PM 43.4892 -70.1964 42° Northeast 414 476 40,900  Level Boston Center
Sun 08:50:16 PM 43.5725 -70.0903 43° Northeast 414 476 40,900  Level Boston Center
Sun 08:51:16 PM 43.6475 -69.9897 44° Northeast 409 471 40,900  Level Boston Center
Sun 08:52:16 PM 43.7347 -69.8797 42° Northeast 415 478 40,900 50 Level Boston Center
Sun 08:53:16 PM 43.8197 -69.7697 43° Northeast 415 478 41,000  Climbing Boston Center
Sun 08:54:16 PM 43.9067 -69.6564 43° Northeast 415 478 40,900 -45 Descending Boston Center
Sun 08:55:28 PM 44.0075 -69.5244 43° Northeast 415 478 40,900  Level Boston Center
Sun 08:56:28 PM 44.0964 -69.4131 42° Northeast 415 478 40,900  Level Boston Center
Sun 08:57:28 PM 44.1808 -69.2989 44° Northeast 415 478 40,900  Level Boston Center
Sun 08:58:28 PM 44.2675 -69.1869 43° Northeast 415 478 40,900  Level Boston Center
Sun 08:59:28 PM 44.3578 -69.0717 42° Northeast 415 478 40,900  Level Boston Center
Sun 09:00:28 PM 44.4419 -68.9564 44° Northeast 415 478 40,900  Level Boston Center
Sun 09:01:15 PM 44.5000 -68.8500 53° Northeast 430 495 40,900  Level Moncton Center
Sun 09:02:15 PM 44.5833 -68.7333 45° Northeast 440 506 40,900  Level Moncton Center
Sun 09:03:15 PM 44.6667 -68.6333 40° Northeast 430 495 40,900  Level Moncton Center
Sun 09:04:15 PM 44.7667 -68.5167 40° Northeast 430 495 40,900  Level Moncton Center
Sun 09:05:15 PM 44.8500 -68.3833 49° Northeast 430 495 40,900  Level Moncton Center
Sun 09:06:15 PM 44.9333 -68.2667 45° Northeast 430 495 40,900  Level Moncton Center
Sun 09:07:15 PM 45.0333 -68.1667 35° Northeast 430 495 40,900  Level Moncton Center
Sun 09:08:15 PM 45.1000 -68.0500 51° Northeast 440 506 40,900  Level Moncton Center
Sun 09:09:15 PM 45.2000 -67.9167 43° Northeast 430 495 40,900  Level Moncton Center
Sun 09:10:15 PM 45.2667 -67.8000 51° Northeast 430 495 40,900  Level Moncton Center
Sun 09:11:15 PM 45.3833 -67.6833 35° Northeast 430 495 40,900  Level Moncton Center
Sun 09:12:15 PM 45.4667 -67.5667 44° Northeast 440 506 40,900  Level Moncton Center
Sun 09:13:15 PM 45.5500 -67.4500 44° Northeast 440 506 40,900  Level Moncton Center
Sun 09:14:15 PM 45.6333 -67.3333 44° Northeast 440 506 40,900  Level Moncton Center
Sun 09:15:15 PM 45.7167 -67.2000 48° Northeast 440 506 40,900  Level Moncton Center
Sun 09:16:15 PM 45.8167 -67.0833 39° Northeast 440 506 40,900  Level Moncton Center
Sun 09:17:15 PM 45.9167 -66.9667 39° Northeast 440 506 40,900  Level Moncton Center
Sun 09:18:15 PM 46.0000 -66.8500 44° Northeast 440 506 40,900  Level Moncton Center
Sun 09:19:15 PM 46.0833 -66.7333 44° Northeast 440 506 40,900  Level Moncton Center
Sun 09:20:15 PM 46.1667 -66.6167 44° Northeast 430 495 40,900  Level Moncton Center
Sun 09:21:15 PM 46.2500 -66.5000 44° Northeast 440 506 40,900  Level Moncton Center
Sun 09:22:15 PM 46.3500 -66.3667 43° Northeast 440 506 40,900  Level Moncton Center
Sun 09:23:15 PM 46.4333 -66.2500 44° Northeast 430 495 40,900  Level Moncton Center
Sun 09:24:15 PM 46.5167 -66.1167 48° Northeast 440 506 40,900  Level Moncton Center
Sun 09:25:15 PM 46.6000 -66.0000 44° Northeast 440 506 40,900  Level Moncton Center
Sun 09:26:15 PM 46.7000 -65.8667 42° Northeast 440 506 40,900  Level Moncton Center
Sun 09:27:15 PM 46.7833 -65.7333 48° Northeast 440 506 40,900  Level Moncton Center
Sun 09:28:15 PM 46.8667 -65.6167 44° Northeast 440 506 40,900  Level Moncton Center
Sun 09:29:15 PM 46.9500 -65.5000 44° Northeast 440 506 40,900  Level Moncton Center
Sun 09:30:15 PM 47.0500 -65.3833 38° Northeast 440 506 40,900  Level Moncton Center
Sun 09:31:15 PM 47.1500 -65.2667 38° Northeast 440 506 40,900  Level Moncton Center
Sun 09:32:15 PM 47.2333 -65.1333 47° Northeast 440 506 40,900  Level Moncton Center
Sun 09:33:15 PM 47.3167 -64.9833 51° Northeast 440 506 40,900  Level Moncton Center
Sun 09:34:15 PM 47.4000 -64.8667 43° Northeast 440 506 40,900  Level Moncton Center
Sun 09:35:15 PM 47.4833 -64.7500 43° Northeast 440 506 40,900  Level Moncton Center
Sun 09:36:15 PM 47.5667 -64.6167 47° Northeast 440 506 40,900  Level Moncton Center
Sun 09:37:15 PM 47.6500 -64.4667 50° Northeast 440 506 40,900  Level Moncton Center
Sun 09:38:15 PM 47.7500 -64.3500 38° Northeast 440 506 40,900  Level Moncton Center
Sun 09:39:15 PM 47.8333 -64.2167 47° Northeast 440 506 40,900  Level Moncton Center
Sun 09:40:15 PM 47.9167 -64.1000 43° Northeast 440 506 40,900  Level Moncton Center
Sun 09:41:15 PM 48.0000 -63.9667 47° Northeast 440 506 40,900  Level Moncton Center
Sun 09:42:15 PM 48.1000 -63.8167 45° Northeast 440 506 40,900  Level Moncton Center
Sun 09:43:15 PM 48.1833 -63.7000 43° Northeast 440 506 40,900  Level Moncton Center
Sun 09:44:15 PM 48.2667 -63.5667 47° Northeast 450 518 40,900  Level Moncton Center
Sun 09:45:15 PM 48.3500 -63.4333 47° Northeast 450 518 40,900  Level Moncton Center
Sun 09:46:15 PM 48.4333 -63.2833 50° Northeast 440 506 40,900  Level Moncton Center
Sun 09:47:15 PM 48.5333 -63.1500 41° Northeast 450 518 40,900  Level Moncton Center
Sun 09:48:15 PM 48.6167 -63.0333 43° Northeast 450 518 40,900  Level Moncton Center
Sun 09:49:15 PM 48.7000 -62.8833 50° Northeast 450 518 40,900  Level Moncton Center
Sun 09:50:15 PM 48.8000 -62.7500 41° Northeast 450 518 40,900  Level Moncton Center
Sun 09:51:15 PM 48.8667 -62.6167 53° Northeast 450 518 40,900  Level Moncton Center
Sun 09:52:15 PM 48.9500 -62.4833 46° Northeast 440 506 40,900  Level Moncton Center
Sun 09:53:15 PM 49.0333 -62.3500 46° Northeast 440 506 40,900  Level Moncton Center
Sun 09:54:15 PM 49.1333 -62.2000 44° Northeast 450 518 40,900  Level Moncton Center
Sun 09:55:15 PM 49.2167 -62.0667 46° Northeast 440 506 40,900  Level Moncton Center
Sun 09:56:15 PM 49.3000 -61.9333 46° Northeast 440 506 40,900  Level Moncton Center
Sun 09:57:15 PM 49.3833 -61.8000 46° Northeast 440 506 40,900  Level Moncton Center
Sun 09:58:15 PM 49.4667 -61.6333 52° Northeast 450 518 40,900  Level Moncton Center
Sun 09:59:15 PM 49.5333 -61.5000 52° Northeast 450 518 40,900  Level Moncton Center
Sun 10:00:15 PM 49.6333 -61.3500 44° Northeast 460 529 40,900  Level Moncton Center
Sun 10:01:15 PM 49.7167 -61.2167 46° Northeast 460 529 40,900  Level Moncton Center
Sun 10:02:15 PM 49.8167 -61.0500 47° Northeast 460 529 40,900  Level Moncton Center
Sun 10:03:15 PM 49.8833 -60.9167 52° Northeast 460 529 40,900  Level Moncton Center
Sun 10:04:15 PM 49.9667 -60.7833 46° Northeast 460 529 40,900  Level Moncton Center
Sun 10:05:15 PM 50.0667 -60.6167 47° Northeast 450 518 40,900  Level Moncton Center
Sun 10:06:15 PM 50.1500 -60.4833 46° Northeast 460 529 40,900  Level Moncton Center
Sun 10:07:15 PM 50.2333 -60.3333 49° Northeast 460 529 40,900  Level Moncton Center
Sun 10:08:15 PM 50.3167 -60.1667 52° Northeast 460 529 40,900  Level Moncton Center
Sun 10:09:15 PM 50.4000 -60.0333 46° Northeast 460 529 40,900  Level Moncton Center
Sun 10:10:15 PM 50.4833 -59.9000 45° Northeast 450 518 40,900  Level Moncton Center
Sun 10:11:15 PM 50.5667 -59.7333 52° Northeast 460 529 40,900  Level Moncton Center
Sun 10:12:15 PM 50.6500 -59.5667 52° Northeast 460 529 40,900  Level Moncton Center
Sun 10:13:15 PM 50.7500 -59.4167 43° Northeast 460 529 40,900  Level Moncton Center
Sun 10:14:15 PM 50.8167 -59.2500 58° Northeast 460 529 40,900  Level Moncton Center
Sun 10:15:15 PM 50.9000 -59.0833 52° Northeast 470 541 40,900  Level Moncton Center
Sun 10:16:15 PM 50.9667 -58.9167 58° Northeast 470 541 40,900  Level Moncton Center
Sun 10:17:15 PM 51.0500 -58.7833 45° Northeast 470 541 40,900  Level Moncton Center
Sun 10:18:15 PM 51.1167 -58.5833 62° Northeast 470 541 40,900  Level Moncton Center
Sun 10:19:15 PM 51.2000 -58.4333 48° Northeast 470 541 40,900  Level Moncton Center
Sun 10:20:15 PM 51.3000 -58.2667 46° Northeast 470 541 40,900  Level Moncton Center
Sun 10:21:15 PM 51.3667 -58.1000 57° Northeast 470 541 40,900  Level Moncton Center
Sun 10:22:15 PM 51.4333 -57.9167 60° Northeast 480 552 40,900  Level Moncton Center
Sun 10:23:15 PM 51.5167 -57.7500 51° Northeast 470 541 40,900  Level Moncton Center
Sun 10:24:15 PM 51.6000 -57.5667 54° Northeast 480 552 40,900  Level Moncton Center
Sun 10:25:15 PM 51.6667 -57.4000 57° Northeast 470 541 40,900  Level Moncton Center
Sun 10:26:15 PM 51.7500 -57.2333 51° Northeast 470 541 40,900  Level Moncton Center
Sun 10:27:15 PM 51.8333 -57.0500 54° Northeast 480 552 40,900  Level Moncton Center
Sun 10:28:15 PM 51.9000 -56.8833 57° Northeast 470 541 40,900  Level Moncton Center
Sun 10:29:15 PM 51.9667 -56.7000 59° Northeast 480 552 40,900  Level Moncton Center
Sun 10:30:15 PM 52.0500 -56.5333 51° Northeast 480 552 40,900  Level Moncton Center
Sun 10:31:15 PM 52.1333 -56.3500 53° Northeast 480 552 40,900  Level Moncton Center
Sun 10:32:15 PM 52.2000 -56.1667 59° Northeast 480 552 40,900  Level Moncton Center
Sun 10:33:15 PM 52.2833 -56.0000 51° Northeast 480 552 40,900  Level Moncton Center
Sun 10:34:15 PM 52.3500 -55.8167 59° Northeast 480 552 40,900  Level Moncton Center
Sun 10:35:15 PM 52.4333 -55.6333 53° Northeast 490 564 40,900  Level Moncton Center
Sun 10:36:15 PM 52.5167 -55.4500 53° Northeast 470 541 40,900  Level Moncton Center
Sun 10:37:15 PM 52.5833 -55.2667 59° Northeast 480 552 40,900  Level Moncton Center
Sun 10:38:15 PM 52.6500 -55.0833 59° Northeast 480 552 40,900  Level Moncton Center
Sun 10:39:15 PM 52.7333 -54.9000 53° Northeast 490 564 40,900  Level Moncton Center
Sun 10:40:15 PM 52.8000 -54.7000 61° Northeast 490 564 40,900  Level Moncton Center
Sun 10:41:15 PM 52.8833 -54.5500 47° Northeast 490 564 40,900  Level Moncton Center
Sun 10:42:15 PM 52.9667 -54.3333 57° Northeast 480 552 40,900  Level Moncton Center
Sun 10:43:15 PM 53.0333 -54.1500 59° Northeast 480 552 40,900  Level Moncton Center
Sun 10:44:15 PM 53.1000 -53.9667 59° Northeast 490 564 40,900 57 Level Moncton Center
Sun 10:45:00 PM 53.0667 -54.0667 67° East 491 565 41,000  Climbing ETMS Enhanced Traffic Management System
Sun 10:45:15 PM 53.1500 -53.7833 65° Northeast 490 564 40,900 -194 Descending Moncton Center
Sun 10:45:31 PM 53.1667 -53.7167 67° East 490 564 40,900  Level Gander Center
Sun 10:46:31 PM 53.2000 -53.4833 76° East 490 564 40,900  Level Gander Center
Sun 10:47:31 PM 53.2500 -53.2833 67° East 490 564 40,900  Level Gander Center
Sun 10:48:31 PM 53.3000 -53.0667 69° East 490 564 40,900  Level Gander Center
Sun 10:49:31 PM 53.3500 -52.8667 67° East 490 564 40,900  Level Gander Center
Sun 10:50:31 PM 53.4000 -52.6667 67° East 490 564 40,900  Level Gander Center
Sun 10:51:31 PM 53.4333 -52.4333 76° East 490 564 40,900  Level Gander Center
Sun 10:52:31 PM 53.5000 -52.2167 63° Northeast 490 564 40,900  Level Gander Center
Sun 10:53:31 PM 53.5500 -52.0167 67° East 490 564 40,900  Level Gander Center
Sun 10:54:31 PM 53.6000 -51.7667 71° East 490 564 40,900  Level Gander Center
Sun 10:55:31 PM 53.6500 -51.5667 67° East 490 564 40,900  Level Gander Center
Sun 10:56:31 PM 53.7000 -51.3500 69° East 500 575 40,900  Level Gander Center
Sun 10:57:31 PM 53.7333 -51.1167 76° East 500 575 40,900  Level Gander Center
Sun 10:58:31 PM 53.7667 -50.9000 75° East 500 575 40,900  Level Gander Center
Sun 10:59:31 PM 53.8167 -50.6667 70° East 500 575 40,900  Level Gander Center
Sun 11:01:14 PM 53.9000 -50.3333 67° East 310 357 40,900 22 Level Gander Center
Sun 11:03:00 PM 54.0016 -49.9935 67° East  Level FlightAware Approximate
Sun 11:04:00 PM 54.0000 -50.0000 67° East 496 571 41,000  Level ETMS Enhanced Traffic Management System
Sun 11:10:00 PM 54.4235 -48.2579 68° East 496 571 41,000  Level FlightAware Transoceanic
Sun 11:11:00 PM 54.4746 -48.0376 68° East 496 571 41,000  Level FlightAware Transoceanic
Sun 11:12:00 PM 54.5254 -47.8168 68° East 496 571 41,000  Level FlightAware Transoceanic
Sun 11:13:00 PM 54.5757 -47.5954 69° East 496 571 41,000  Level FlightAware Transoceanic
Sun 11:14:00 PM 54.6257 -47.3735 69° East 496 571 41,000  Level FlightAware Transoceanic
Sun 11:15:00 PM 54.6752 -47.1511 69° East 496 571 41,000  Level FlightAware Transoceanic
Sun 11:16:00 PM 54.7244 -46.9281 69° East 496 571 41,000  Level FlightAware Transoceanic
Sun 11:17:00 PM 54.7731 -46.7046 69° East 496 571 41,000  Level FlightAware Transoceanic
Sun 11:18:00 PM 54.8214 -46.4805 70° East 496 571 41,000  Level FlightAware Transoceanic
Sun 11:19:00 PM 54.8693 -46.2559 70° East 496 571 41,000  Level FlightAware Transoceanic
Sun 11:20:00 PM 54.9168 -46.0308 70° East 496 571 41,000  Level FlightAware Transoceanic
Sun 11:21:00 PM 54.9638 -45.8051 70° East 496 571 41,000  Level FlightAware Transoceanic
Sun 11:22:00 PM 55.0105 -45.5789 70° East 496 571 41,000  Level FlightAware Transoceanic
Sun 11:23:00 PM 55.0567 -45.3522 71° East 496 571 41,000  Level FlightAware Transoceanic
Sun 11:24:00 PM 55.1025 -45.1250 71° East 496 571 41,000  Level FlightAware Transoceanic
Sun 11:25:00 PM 55.1479 -44.8972 71° East 496 571 41,000  Level FlightAware Transoceanic
Sun 11:26:00 PM 55.1928 -44.6689 71° East 496 571 41,000  Level FlightAware Transoceanic
Sun 11:27:00 PM 55.2374 -44.4402 71° East 496 571 41,000  Level FlightAware Transoceanic
Sun 11:28:00 PM 55.2815 -44.2108 71° East 496 571 41,000  Level FlightAware Transoceanic
Sun 11:29:00 PM 55.3251 -43.9810 72° East 496 571 41,000  Level FlightAware Transoceanic
Sun 11:30:00 PM 55.3684 -43.7507 72° East 496 571 41,000  Level FlightAware Transoceanic
Sun 11:31:00 PM 55.4112 -43.5199 72° East 496 571 41,000  Level FlightAware Transoceanic
Sun 11:32:00 PM 55.4535 -43.2886 72° East 496 571 41,000  Level FlightAware Transoceanic
Sun 11:33:00 PM 55.4954 -43.0568 72° East 496 571 41,000  Level FlightAware Transoceanic
Sun 11:34:00 PM 55.5369 -42.8245 73° East 496 571 41,000  Level FlightAware Transoceanic
Sun 11:35:00 PM 55.5780 -42.5918 73° East 496 571 41,000  Level FlightAware Transoceanic
Sun 11:36:00 PM 55.6186 -42.3585 73° East 496 571 41,000  Level FlightAware Transoceanic
Sun 11:37:00 PM 55.6587 -42.1247 73° East 496 571 41,000  Level FlightAware Transoceanic
Sun 11:38:00 PM 55.6985 -41.8905 73° East 496 571 41,000  Level FlightAware Transoceanic
Sun 11:39:00 PM 55.7377 -41.6558 74° East 496 571 41,000  Level FlightAware Transoceanic
Sun 11:40:00 PM 55.7766 -41.4207 74° East 496 571 41,000  Level FlightAware Transoceanic
Sun 11:41:00 PM 55.8149 -41.1850 74° East 496 571 41,000  Level FlightAware Transoceanic
Sun 11:42:00 PM 55.8529 -40.9489 74° East 496 571 41,000  Level FlightAware Transoceanic
Sun 11:43:00 PM 55.8903 -40.7124 74° East 496 571 41,000  Level FlightAware Transoceanic
Sun 11:44:00 PM 55.9273 -40.4754 75° East 496 571 41,000  Level FlightAware Transoceanic
Sun 11:45:00 PM 55.9639 -40.2379 75° East 496 571 41,000  Level FlightAware Transoceanic
Sun 11:46:00 PM 55.9971 -40.0193 75° East  Level FlightAware Approximate
Sun 11:47:00 PM 56.0299 -39.8003 75° East  Level FlightAware Approximate
Sun 11:48:00 PM 56.0429 -39.8297 66° East  Level FlightAware Approximate
Sun 11:49:00 PM 56.0946 -39.6224 66° East  Level FlightAware Approximate
Sun 11:50:00 PM 56.1460 -39.4146 66° East  Level FlightAware Approximate
Sun 11:51:00 PM 56.1970 -39.2062 66° East  Level FlightAware Approximate
Sun 11:51:46 PM 56.0000 -40.0000 66° East 496 571 41,000  Level ETMS Enhanced Traffic Management System
Sun 11:52:00 PM 56.2476 -38.9973 66° East  Level FlightAware Approximate
Sun 11:53:00 PM 56.2980 -38.7878 67° East  Level FlightAware Approximate
Sun 11:54:00 PM 56.3479 -38.5778 67° East  Level FlightAware Approximate
Sun 11:55:00 PM 56.3975 -38.3672 67° East  Level FlightAware Approximate
Sun 11:56:00 PM 56.4468 -38.1561 67° East  Level FlightAware Approximate
Sun 11:57:00 PM 56.6517 -37.2544 68° East 496 571 41,000  Level FlightAware Transoceanic
Sun 11:58:00 PM 56.7032 -37.0214 68° East 496 571 41,000  Level FlightAware Transoceanic
Sun 11:59:00 PM 56.7543 -36.7878 68° East 496 571 41,000  Level FlightAware Transoceanic
Mon 12:00:00 AM 56.8050 -36.5535 69° East 496 571 41,000  Level FlightAware Transoceanic
Mon 12:01:00 AM 56.8552 -36.3186 69° East 496 571 41,000  Level FlightAware Transoceanic
Mon 12:02:00 AM 56.9050 -36.0831 69° East 496 571 41,000  Level FlightAware Transoceanic
Mon 12:03:00 AM 56.9543 -35.8469 69° East 496 571 41,000  Level FlightAware Transoceanic
Mon 12:04:00 AM 57.0032 -35.6101 69° East 496 571 41,000  Level FlightAware Transoceanic
Mon 12:05:00 AM 57.0516 -35.3727 70° East 496 571 41,000  Level FlightAware Transoceanic
Mon 12:06:00 AM 57.0996 -35.1347 70° East 496 571 41,000  Level FlightAware Transoceanic
Mon 12:07:00 AM 57.1472 -34.8961 70° East 496 571 41,000  Level FlightAware Transoceanic
Mon 12:08:00 AM 57.1942 -34.6569 70° East 496 571 41,000  Level FlightAware Transoceanic
Mon 12:09:00 AM 57.2409 -34.4170 70° East 496 571 41,000  Level FlightAware Transoceanic
Mon 12:10:00 AM 57.2870 -34.1766 71° East 496 571 41,000  Level FlightAware Transoceanic
Mon 12:11:00 AM 57.3328 -33.9355 71° East 496 571 41,000  Level FlightAware Transoceanic
Mon 12:12:00 AM 57.3780 -33.6939 71° East 496 571 41,000  Level FlightAware Transoceanic
Mon 12:13:00 AM 57.4228 -33.4516 71° East 496 571 41,000  Level FlightAware Transoceanic
Mon 12:14:00 AM 57.4671 -33.2088 71° East 496 571 41,000  Level FlightAware Transoceanic
Mon 12:15:00 AM 57.5110 -32.9653 72° East 496 571 41,000  Level FlightAware Transoceanic
Mon 12:16:00 AM 57.5543 -32.7213 72° East 496 571 41,000  Level FlightAware Transoceanic
Mon 12:17:00 AM 57.5973 -32.4767 72° East 496 571 41,000  Level FlightAware Transoceanic
Mon 12:18:00 AM 57.6397 -32.2316 72° East 496 571 41,000  Level FlightAware Transoceanic
Mon 12:19:00 AM 57.6816 -31.9859 72° East 496 571 41,000  Level FlightAware Transoceanic
Mon 12:20:00 AM 57.7231 -31.7396 73° East 496 571 41,000  Level FlightAware Transoceanic
Mon 12:21:00 AM 57.7641 -31.4927 73° East 496 571 41,000  Level FlightAware Transoceanic
Mon 12:22:00 AM 57.8047 -31.2453 73° East 496 571 41,000  Level FlightAware Transoceanic
Mon 12:23:00 AM 57.8447 -30.9973 73° East 496 571 41,000  Level FlightAware Transoceanic
Mon 12:24:00 AM 57.8843 -30.7488 73° East 496 571 41,000  Level FlightAware Transoceanic
Mon 12:25:00 AM 57.9233 -30.4997 74° East 496 571 41,000  Level FlightAware Transoceanic
Mon 12:26:00 AM 57.9619 -30.2501 74° East 496 571 41,000  Level FlightAware Transoceanic
Mon 12:27:00 AM 57.9969 -30.0204 74° East  Level FlightAware Approximate
Mon 12:28:00 AM 58.0315 -29.7903 74° East  Level FlightAware Approximate
Mon 12:29:00 AM 58.0270 -29.8099 75° East  Level FlightAware Approximate
Mon 12:30:00 AM 58.0594 -29.5785 75° East  Level FlightAware Approximate
Mon 12:31:00 AM 58.0913 -29.3466 75° East  Level FlightAware Approximate
Mon 12:32:00 AM 58.1229 -29.1143 75° East  Level FlightAware Approximate
Mon 12:32:17 AM 58.0000 -30.0000 75° East 517 595 41,000  Level ETMS Enhanced Traffic Management System
Mon 12:33:00 AM 58.1540 -28.8815 76° East  Level FlightAware Approximate
Mon 12:34:00 AM 58.1847 -28.6484 76° East  Level FlightAware Approximate
Mon 12:35:00 AM 58.2150 -28.4149 76° East  Level FlightAware Approximate
Mon 12:36:00 AM 58.2449 -28.1810 76° East  Level FlightAware Approximate
Mon 12:37:00 AM 58.2743 -27.9467 76° East  Level FlightAware Approximate
Mon 12:38:00 AM 58.3780 -27.0894 77° East 517 595 41,000  Level FlightAware Transoceanic
Mon 12:39:00 AM 58.4090 -26.8218 78° East 517 595 41,000  Level FlightAware Transoceanic
Mon 12:40:00 AM 58.4395 -26.5537 78° East 517 595 41,000  Level FlightAware Transoceanic
Mon 12:41:00 AM 58.4695 -26.2852 78° East 517 595 41,000  Level FlightAware Transoceanic
Mon 12:42:00 AM 58.4989 -26.0162 78° East 517 595 41,000  Level FlightAware Transoceanic
Mon 12:43:00 AM 58.5277 -25.7468 79° East 517 595 41,000  Level FlightAware Transoceanic
Mon 12:44:00 AM 58.5559 -25.4770 79° East 517 595 41,000  Level FlightAware Transoceanic
Mon 12:45:00 AM 58.5836 -25.2067 79° East 517 595 41,000  Level FlightAware Transoceanic
Mon 12:46:00 AM 58.6107 -24.9360 79° East 517 595 41,000  Level FlightAware Transoceanic
Mon 12:47:00 AM 58.6372 -24.6649 79° East 517 595 41,000  Level FlightAware Transoceanic
Mon 12:48:00 AM 58.6632 -24.3933 80° East 517 595 41,000  Level FlightAware Transoceanic
Mon 12:49:00 AM 58.6886 -24.1214 80° East 517 595 41,000  Level FlightAware Transoceanic
Mon 12:50:00 AM 58.7134 -23.8491 80° East 517 595 41,000  Level FlightAware Transoceanic
Mon 12:51:00 AM 58.7377 -23.5764 80° East 517 595 41,000  Level FlightAware Transoceanic
Mon 12:52:00 AM 58.7614 -23.3033 81° East 517 595 41,000  Level FlightAware Transoceanic
Mon 12:53:00 AM 58.7845 -23.0298 81° East 517 595 41,000  Level FlightAware Transoceanic
Mon 12:54:00 AM 58.8070 -22.7560 81° East 517 595 41,000  Level FlightAware Transoceanic
Mon 12:55:00 AM 58.8289 -22.4818 81° East 517 595 41,000  Level FlightAware Transoceanic
Mon 12:56:00 AM 58.8503 -22.2073 82° East 517 595 41,000  Level FlightAware Transoceanic
Mon 12:57:00 AM 58.8710 -21.9325 82° East 517 595 41,000  Level FlightAware Transoceanic
Mon 12:58:00 AM 58.8912 -21.6573 82° East 517 595 41,000  Level FlightAware Transoceanic
Mon 12:59:00 AM 58.9108 -21.3818 82° East 517 595 41,000  Level FlightAware Transoceanic
Mon 01:00:00 AM 58.9298 -21.1061 83° East 517 595 41,000  Level FlightAware Transoceanic
Mon 01:01:00 AM 58.9482 -20.8300 83° East 517 595 41,000  Level FlightAware Transoceanic
Mon 01:02:00 AM 58.9661 -20.5536 83° East 517 595 41,000  Level FlightAware Transoceanic
Mon 01:03:00 AM 58.9833 -20.2769 83° East 517 595 41,000 -26 Level FlightAware Transoceanic
Mon 01:04:00 AM 58.9981 -20.0326 83° East  Level FlightAware Approximate
Mon 01:05:00 AM 59.0123 -19.7881 83° East  Level FlightAware Approximate
Mon 01:06:00 AM 58.9991 -19.8196 90° East  Level FlightAware Approximate
Mon 01:07:00 AM 58.9974 -19.5736 91° East  Level FlightAware Approximate
Mon 01:08:00 AM 58.9953 -19.3276 91° East  Level FlightAware Approximate
Mon 01:09:00 AM 58.9927 -19.0816 91° East  Level FlightAware Approximate
Mon 01:10:00 AM 58.9897 -18.8357 91° East  Level FlightAware Approximate
Mon 01:11:00 AM 58.9861 -18.5898 91° East  Level FlightAware Approximate
Mon 01:12:00 AM 58.9822 -18.3440 92° East  Level FlightAware Approximate
Mon 01:13:00 AM 58.9777 -18.0982 92° East  Level FlightAware Approximate
Mon 01:14:00 AM 58.9728 -17.8525 92° East  Level FlightAware Approximate
Mon 01:15:00 AM 58.9674 -17.6069 92° East  Level FlightAware Approximate
Mon 01:16:00 AM 58.9616 -17.3613 93° East  Level FlightAware Approximate
Mon 01:17:00 AM 58.9552 -17.1159 93° East  Level FlightAware Approximate
Mon 01:18:00 AM 58.9485 -16.8705 93° East  Level FlightAware Approximate
Mon 01:19:00 AM 58.9412 -16.6253 93° East  Level FlightAware Approximate
Mon 01:20:00 AM 58.9335 -16.3801 93° East  Level FlightAware Approximate
Mon 01:21:00 AM 58.9254 -16.1350 94° East  Level FlightAware Approximate
Mon 01:22:00 AM 58.9167 -15.8901 94° East  Level FlightAware Approximate
Mon 01:23:00 AM 58.9076 -15.6453 94° East  Level FlightAware Approximate
Mon 01:24:00 AM 58.8981 -15.4007 94° East  Level FlightAware Approximate
Mon 01:25:00 AM 58.8881 -15.1561 94° East  Level FlightAware Approximate
Mon 01:26:00 AM 58.8776 -14.9117 95° East  Level FlightAware Approximate
Mon 01:27:00 AM 58.8666 -14.6675 95° East  Level FlightAware Approximate
Mon 01:28:00 AM 58.8552 -14.4234 95° East  Level FlightAware Approximate
Mon 01:29:00 AM 58.8434 -14.1795 95° East  Level FlightAware Approximate
Mon 01:30:00 AM 58.8311 -13.9358 95° East  Level FlightAware Approximate
Mon 01:31:00 AM 58.8183 -13.6922 96° East  Level FlightAware Approximate
Mon 01:32:00 AM 58.8050 -13.4488 96° East  Level FlightAware Approximate
Mon 01:33:00 AM 58.7913 -13.2056 96° East  Level FlightAware Approximate
Mon 01:34:00 AM 58.7772 -12.9626 96° East  Level FlightAware Approximate
Mon 01:35:00 AM 58.7626 -12.7198 97° East  Level FlightAware Approximate
Mon 01:36:00 AM 58.7475 -12.4772 97° East  Level FlightAware Approximate
Mon 01:37:00 AM 58.7320 -12.2349 97° East  Level FlightAware Approximate
Mon 01:38:00 AM 58.7160 -11.9927 97° East  Level FlightAware Approximate
Mon 01:39:00 AM 58.6996 -11.7508 97° East  Level FlightAware Approximate
Mon 01:40:00 AM 58.6827 -11.5091 98° East  Level FlightAware Approximate
Mon 01:41:00 AM 58.6654 -11.2676 98° East  Level FlightAware Approximate
Mon 01:42:00 AM 58.6476 -11.0264 98° East  Level FlightAware Approximate
Mon 01:43:00 AM 58.6294 -10.7854 98° East  Level FlightAware Approximate
Mon 01:44:00 AM 58.6107 -10.5447 98° East  Level FlightAware Approximate
Mon 01:45:00 AM 58.5915 -10.3042 99° East  Level FlightAware Approximate
Mon 01:45:08 AM 58.7793 -9.0022 99° East 466 536 39,900  Level FlightAware UK
Mon 01:45:38 AM 58.7515 -8.8750 113° Southeast 472 543 38,900 -1,900 Descending FlightAware UK
Mon 01:46:08 AM 58.7238 -8.7480 113° Southeast 466 536 38,000 -1,800 Descending FlightAware UK
Mon 01:46:38 AM 58.6964 -8.6222 113° Southeast 458 527 37,100 -1,700 Descending FlightAware UK
Mon 01:47:08 AM 58.6694 -8.4984 113° Southeast 454 522 36,300 -1,700 Descending FlightAware UK
Mon 01:47:38 AM 58.6416 -8.3744 113° Southeast 468 539 35,400 -1,800 Descending FlightAware UK
Mon 01:48:08 AM 58.6125 -8.2478 114° Southeast 474 545 34,500 -1,700 Descending FlightAware UK
Mon 01:48:38 AM 58.5834 -8.1167 113° Southeast 476 548 33,700 -1,700 Descending FlightAware UK
Mon 01:49:08 AM 58.5539 -7.9880 114° Southeast 478 550 32,800 -1,700 Descending FlightAware UK
Mon 01:49:38 AM 58.5241 -7.8591 114° Southeast 480 552 32,000 -1,800 Descending FlightAware UK
Mon 01:50:08 AM 58.4944 -7.7295 114° Southeast 480 552 31,000 -1,967 Descending FlightAware UK
Mon 01:50:39 AM 58.4639 -7.5983 114° Southeast 478 550 30,000 -1,967 Descending FlightAware UK
Mon 01:51:09 AM 58.4346 -7.4734 114° Southeast 468 539 29,000 -2,000 Descending FlightAware UK
Mon 01:51:39 AM 58.4057 -7.3495 114° Southeast 462 532 28,000 -1,900 Descending FlightAware UK
Mon 01:52:09 AM 58.3770 -7.2276 114° Southeast 452 520 27,100 -1,700 Descending FlightAware UK
Mon 01:52:39 AM 58.3483 -7.1071 114° Southeast 450 518 26,300 -1,600 Descending FlightAware UK
Mon 01:53:09 AM 58.3196 -6.9865 114° Southeast 448 516 25,500 -1,600 Descending FlightAware UK
Mon 01:53:39 AM 58.2913 -6.8671 114° Southeast 446 513 24,700 -1,600 Descending FlightAware UK
Mon 01:54:09 AM 58.2634 -6.7523 115° Southeast 436 502 23,900 -1,600 Descending FlightAware UK
Mon 01:54:39 AM 58.2357 -6.6381 115° Southeast 434 499 23,100 -1,600 Descending FlightAware UK
Mon 01:55:09 AM 58.2079 -6.5256 115° Southeast 428 493 22,300 -1,600 Descending FlightAware UK
Mon 01:55:39 AM 58.1815 -6.4159 114° Southeast 420 483 21,500 -1,600 Descending FlightAware UK
Mon 01:56:09 AM 58.1543 -6.3059 115° Southeast 414 476 20,700 -1,700 Descending FlightAware UK
Mon 01:56:39 AM 58.1282 -6.1995 115° Southeast 410 472 19,800 -1,800 Descending FlightAware UK
Mon 01:57:09 AM 58.1021 -6.0947 115° Southeast 402 463 18,900 -1,700 Descending FlightAware UK
Mon 01:57:39 AM 58.0764 -5.9917 115° Southeast 396 456 18,100 -1,700 Descending FlightAware UK
Mon 01:58:09 AM 58.0507 -5.8891 115° Southeast 392 451 17,200 -1,700 Descending FlightAware UK
Mon 01:58:39 AM 58.0250 -5.7873 116° Southeast 390 449 16,400 -1,600 Descending FlightAware UK
Mon 01:59:09 AM 57.9995 -5.6875 116° Southeast 386 444 15,600 -1,500 Descending FlightAware UK
Mon 01:59:39 AM 57.9747 -5.5896 115° Southeast 380 437 14,900 -1,500 Descending FlightAware UK
Mon 02:00:09 AM 57.9499 -5.4923 116° Southeast 376 433 14,100 -1,500 Descending FlightAware UK
Mon 02:00:39 AM 57.9258 -5.3983 116° Southeast 370 426 13,400 -1,364 Descending FlightAware UK
Mon 02:01:15 AM 57.8972 -5.2876 116° Southeast 362 417 12,600 -1,364 Descending FlightAware UK
Mon 02:01:45 AM 57.8742 -5.1988 116° Southeast 338 389 11,900 -1,400 Descending FlightAware UK
Mon 02:02:15 AM 57.8525 -5.1158 116° Southeast 316 364 11,200 -1,273 Descending FlightAware UK
Mon 02:02:51 AM 57.8277 -5.0208 116° Southeast 304 350 10,500 -1,273 Descending FlightAware UK
Mon 02:03:21 AM 57.8078 -4.9448 116° Southeast 292 336 9,800 -1,182 Descending FlightAware UK
Mon 02:03:57 AM 57.7842 -4.8556 116° Southeast 292 336 9,200 -1,167 Descending FlightAware UK
Mon 02:04:33 AM 57.7611 -4.7674 116° Southeast 286 329 8,400 -1,250 Descending FlightAware UK
Mon 02:05:09 AM 57.7379 -4.6805 117° Southeast 282 325 7,700 -1,231 Descending FlightAware UK
Mon 02:05:51 AM 57.7106 -4.5783 116° Southeast 278 320 6,800 -923 Descending FlightAware UK
Mon 02:06:27 AM 57.6876 -4.4920 117° Southeast 278 320 6,500 -231 Descending FlightAware UK
Mon 02:07:09 AM 57.6575 -4.3979 121° Southeast 278 320 6,500  Level FlightAware UK
Mon 02:07:45 AM 57.6316 -4.3163 121° Southeast 264 304 6,500  Level FlightAware UK
Mon 02:08:21 AM 57.6095 -4.2458 120° Southeast 228 262 6,500 -1,000 Level FlightAware UK
Mon 02:09:03 AM 57.5834 -4.1653 121° Southeast 240 276 5,200 -1,643 Descending FlightAware UK
Mon 02:09:45 AM 57.5565 -4.0822 121° Southeast 232 267 4,200 -1,143 Descending FlightAware UK
Mon 02:10:27 AM 57.5793 -4.0083 60° Northeast 212 244 3,600 -643 Descending FlightAware UK
Mon 02:11:09 AM 57.6187 -3.9744 25° Northeast 210 242 3,300 -200 Descending FlightAware UK
Mon 02:11:57 AM 57.6644 -3.9366 24° Northeast 192 221 3,300 -333 Level FlightAware UK
Mon 02:12:39 AM 57.7013 -3.9047 25° Northeast 190 219 2,800 -750 Descending FlightAware UK
Mon 02:13:09 AM 57.6987 -3.8519 95° East 180 207 2,400 -800 Descending FlightAware UK
Mon 02:15:00 AM 57.5401 -4.0500 214° Southwest  Level Estimated
Mon 02:22:00 AM 57.5401 -4.0500 North  Level Estimated
Mon 02:23:00 AM 57.5401 -4.0500 North  Level Estimated
Mon 02:24:00 AM 57.5401 -4.0500 North  Level Estimated
Mon 02:25:00 AM 57.5401 -4.0500 North  Level Estimated
Mon 02:26:00 AM 57.5401 -4.0500 North  Level Estimated
Mon 02:27:00 AM 57.5401 -4.0500 North  Level Estimated
Mon 02:28:00 AM 57.5401 -4.0500 North  Level Estimated
Mon 02:29:00 AM 57.5401 -4.0500 North  Level Estimated
Mon 02:30:00 AM 57.5401 -4.0500 North  Level Estimated
Mon 02:31:00 AM 57.5401 -4.0500 North  Level Estimated
Mon 02:32:00 AM 57.5401 -4.0500 North  Level Estimated
Mon 02:33:00 AM 57.5401 -4.0500 North  Level Estimated
Mon 02:34:00 AM 57.5401 -4.0500 North  Level Estimated

Login

Don't have an account? Register now (free) for customized features, flight alerts, and more!